sensor_id;sensor_type;location;lat;lon;timestamp;temperature;humidity
44513;DHT22;30219;50.588;9.504;2022-11-13T00:01:52;2.00;99.90
44513;DHT22;30219;50.588;9.504;2022-11-13T00:04:17;1.90;99.90
44513;DHT22;30219;50.588;9.504;2022-11-13T00:06:43;2.00;99.90
44513;DHT22;30219;50.588;9.504;2022-11-13T00:09:10;1.90;99.90
44513;DHT22;30219;50.588;9.504;2022-11-13T00:11:36;2.00;99.90
44513;DHT22;30219;50.588;9.504;2022-11-13T00:14:02;1.90;99.90
44513;DHT22;30219;50.588;9.504;2022-11-13T00:16:28;1.90;99.90
44513;DHT22;30219;50.588;9.504;2022-11-13T00:18:54;1.90;99.90
44513;DHT22;30219;50.588;9.504;2022-11-13T00:21:22;1.90;99.90
44513;DHT22;30219;50.588;9.504;2022-11-13T00:23:48;2.00;99.90
44513;DHT22;30219;50.588;9.504;2022-11-13T00:26:22;1.90;99.90
44513;DHT22;30219;50.588;9.504;2022-11-13T00:28:56;1.90;99.90
44513;DHT22;30219;50.588;9.504;2022-11-13T00:31:23;1.90;99.90
44513;DHT22;30219;50.588;9.504;2022-11-13T00:33:49;1.90;99.90
44513;DHT22;30219;50.588;9.504;2022-11-13T00:36:17;1.90;99.90
44513;DHT22;30219;50.588;9.504;2022-11-13T00:38:43;2.00;99.90
44513;DHT22;30219;50.588;9.504;2022-11-13T00:41:09;2.00;99.90
44513;DHT22;30219;50.588;9.504;2022-11-13T00:43:34;2.00;99.90
44513;DHT22;30219;50.588;9.504;2022-11-13T00:46:00;2.00;99.90
44513;DHT22;30219;50.588;9.504;2022-11-13T00:48:25;2.00;99.90
44513;DHT22;30219;50.588;9.504;2022-11-13T00:50:52;2.00;99.90
44513;DHT22;30219;50.588;9.504;2022-11-13T00:53:17;1.90;99.90
44513;DHT22;30219;50.588;9.504;2022-11-13T00:55:44;1.90;99.90
44513;DHT22;30219;50.588;9.504;2022-11-13T00:58:13;1.80;99.90
44513;DHT22;30219;50.588;9.504;2022-11-13T01:00:41;1.90;99.90
44513;DHT22;30219;50.588;9.504;2022-11-13T01:03:08;1.90;99.90
44513;DHT22;30219;50.588;9.504;2022-11-13T01:05:38;1.80;99.90
44513;DHT22;30219;50.588;9.504;2022-11-13T01:08:05;1.80;99.90
44513;DHT22;30219;50.588;9.504;2022-11-13T01:10:32;1.70;99.90
44513;DHT22;30219;50.588;9.504;2022-11-13T01:12:58;1.70;99.90
44513;DHT22;30219;50.588;9.504;2022-11-13T01:15:24;1.70;99.90
44513;DHT22;30219;50.588;9.504;2022-11-13T01:17:50;1.70;99.90
44513;DHT22;30219;50.588;9.504;2022-11-13T01:20:16;1.70;99.90
44513;DHT22;30219;50.588;9.504;2022-11-13T01:22:41;1.70;99.90
44513;DHT22;30219;50.588;9.504;2022-11-13T01:25:07;1.70;99.90
44513;DHT22;30219;50.588;9.504;2022-11-13T01:27:35;1.60;99.90
44513;DHT22;30219;50.588;9.504;2022-11-13T01:30:02;1.50;99.90
44513;DHT22;30219;50.588;9.504;2022-11-13T01:32:28;1.40;99.90
44513;DHT22;30219;50.588;9.504;2022-11-13T01:34:53;1.40;99.90
44513;DHT22;30219;50.588;9.504;2022-11-13T01:37:19;1.20;99.90
44513;DHT22;30219;50.588;9.504;2022-11-13T01:39:44;1.20;99.90
44513;DHT22;30219;50.588;9.504;2022-11-13T01:42:10;1.20;99.90
44513;DHT22;30219;50.588;9.504;2022-11-13T01:44:51;1.20;99.90
44513;DHT22;30219;50.588;9.504;2022-11-13T01:47:18;1.30;99.90
44513;DHT22;30219;50.588;9.504;2022-11-13T01:49:45;1.20;99.90
44513;DHT22;30219;50.588;9.504;2022-11-13T01:52:29;1.30;99.90
44513;DHT22;30219;50.588;9.504;2022-11-13T01:55:03;1.30;99.90
44513;DHT22;30219;50.588;9.504;2022-11-13T01:57:29;1.40;99.90
44513;DHT22;30219;50.588;9.504;2022-11-13T01:59:58;1.40;99.90
44513;DHT22;30219;50.588;9.504;2022-11-13T02:02:25;1.40;99.90
44513;DHT22;30219;50.588;9.504;2022-11-13T02:04:50;1.40;99.90
44513;DHT22;30219;50.588;9.504;2022-11-13T02:07:18;1.30;99.90
44513;DHT22;30219;50.588;9.504;2022-11-13T02:09:47;1.40;99.90
44513;DHT22;30219;50.588;9.504;2022-11-13T02:12:17;1.40;99.90
44513;DHT22;30219;50.588;9.504;2022-11-13T02:14:49;1.40;99.90
44513;DHT22;30219;50.588;9.504;2022-11-13T02:17:46;1.30;99.90
44513;DHT22;30219;50.588;9.504;2022-11-13T02:20:13;1.40;99.90
44513;DHT22;30219;50.588;9.504;2022-11-13T02:23:05;1.40;99.90
44513;DHT22;30219;50.588;9.504;2022-11-13T02:25:37;1.40;99.90
44513;DHT22;30219;50.588;9.504;2022-11-13T02:28:03;1.40;99.90
44513;DHT22;30219;50.588;9.504;2022-11-13T02:30:31;1.40;99.90
44513;DHT22;30219;50.588;9.504;2022-11-13T02:32:58;1.30;99.90
44513;DHT22;30219;50.588;9.504;2022-11-13T02:35:26;1.30;99.90
44513;DHT22;30219;50.588;9.504;2022-11-13T02:37:54;1.30;99.90
44513;DHT22;30219;50.588;9.504;2022-11-13T02:40:20;1.40;99.90
44513;DHT22;30219;50.588;9.504;2022-11-13T02:42:46;1.40;99.90
44513;DHT22;30219;50.588;9.504;2022-11-13T02:45:12;1.40;99.90
44513;DHT22;30219;50.588;9.504;2022-11-13T02:47:37;1.40;99.90
44513;DHT22;30219;50.588;9.504;2022-11-13T02:50:04;1.50;99.90
44513;DHT22;30219;50.588;9.504;2022-11-13T02:52:30;1.50;99.90
44513;DHT22;30219;50.588;9.504;2022-11-13T02:54:55;1.60;99.90
44513;DHT22;30219;50.588;9.504;2022-11-13T02:57:21;1.60;99.90
44513;DHT22;30219;50.588;9.504;2022-11-13T02:59:47;1.60;99.90
44513;DHT22;30219;50.588;9.504;2022-11-13T03:02:12;1.60;99.90
44513;DHT22;30219;50.588;9.504;2022-11-13T03:04:38;1.60;99.90
44513;DHT22;30219;50.588;9.504;2022-11-13T03:07:03;1.50;99.90
44513;DHT22;30219;50.588;9.504;2022-11-13T03:09:29;1.50;99.90
44513;DHT22;30219;50.588;9.504;2022-11-13T03:11:55;1.50;99.90
44513;DHT22;30219;50.588;9.504;2022-11-13T03:14:20;1.40;99.90
44513;DHT22;30219;50.588;9.504;2022-11-13T03:16:46;1.40;99.90
44513;DHT22;30219;50.588;9.504;2022-11-13T03:19:11;1.50;99.90
44513;DHT22;30219;50.588;9.504;2022-11-13T03:21:37;1.50;99.90
44513;DHT22;30219;50.588;9.504;2022-11-13T03:24:03;1.50;99.90
44513;DHT22;30219;50.588;9.504;2022-11-13T03:26:28;1.50;99.90
44513;DHT22;30219;50.588;9.504;2022-11-13T03:28:54;1.40;99.90
44513;DHT22;30219;50.588;9.504;2022-11-13T03:31:20;1.40;99.90
44513;DHT22;30219;50.588;9.504;2022-11-13T03:33:46;1.30;99.90
44513;DHT22;30219;50.588;9.504;2022-11-13T03:36:12;1.30;99.90
44513;DHT22;30219;50.588;9.504;2022-11-13T03:38:37;1.30;99.90
44513;DHT22;30219;50.588;9.504;2022-11-13T03:41:03;1.20;99.90
44513;DHT22;30219;50.588;9.504;2022-11-13T03:43:28;1.20;99.90
44513;DHT22;30219;50.588;9.504;2022-11-13T03:45:54;1.10;99.90
44513;DHT22;30219;50.588;9.504;2022-11-13T03:48:20;1.10;99.90
44513;DHT22;30219;50.588;9.504;2022-11-13T03:50:49;1.20;99.90
44513;DHT22;30219;50.588;9.504;2022-11-13T03:53:16;1.20;99.90
44513;DHT22;30219;50.588;9.504;2022-11-13T03:55:42;1.10;99.90
44513;DHT22;30219;50.588;9.504;2022-11-13T03:58:08;1.10;99.90
44513;DHT22;30219;50.588;9.504;2022-11-13T04:00:34;1.10;99.90
44513;DHT22;30219;50.588;9.504;2022-11-13T04:03:00;1.00;99.90
44513;DHT22;30219;50.588;9.504;2022-11-13T04:05:26;1.00;99.90
44513;DHT22;30219;50.588;9.504;2022-11-13T04:07:52;1.00;99.90
44513;DHT22;30219;50.588;9.504;2022-11-13T04:10:18;1.00;99.90
44513;DHT22;30219;50.588;9.504;2022-11-13T04:12:44;1.00;99.90
44513;DHT22;30219;50.588;9.504;2022-11-13T04:15:10;1.00;99.90
44513;DHT22;30219;50.588;9.504;2022-11-13T04:17:35;1.00;99.90
44513;DHT22;30219;50.588;9.504;2022-11-13T04:20:01;1.10;99.90
44513;DHT22;30219;50.588;9.504;2022-11-13T04:22:26;1.10;99.90
44513;DHT22;30219;50.588;9.504;2022-11-13T04:24:52;1.20;99.90
44513;DHT22;30219;50.588;9.504;2022-11-13T04:27:17;1.10;99.90
44513;DHT22;30219;50.588;9.504;2022-11-13T04:29:43;1.20;99.90
44513;DHT22;30219;50.588;9.504;2022-11-13T04:32:09;1.10;99.90
44513;DHT22;30219;50.588;9.504;2022-11-13T04:34:34;1.10;99.90
44513;DHT22;30219;50.588;9.504;2022-11-13T04:37:00;1.10;99.90
44513;DHT22;30219;50.588;9.504;2022-11-13T04:39:25;1.10;99.90
44513;DHT22;30219;50.588;9.504;2022-11-13T04:41:51;1.10;99.90
44513;DHT22;30219;50.588;9.504;2022-11-13T04:44:35;1.10;99.90
44513;DHT22;30219;50.588;9.504;2022-11-13T04:47:00;1.10;99.90
44513;DHT22;30219;50.588;9.504;2022-11-13T04:49:26;1.00;99.90
44513;DHT22;30219;50.588;9.504;2022-11-13T04:51:51;1.00;99.90
44513;DHT22;30219;50.588;9.504;2022-11-13T04:54:17;1.00;99.90
44513;DHT22;30219;50.588;9.504;2022-11-13T04:56:43;1.00;99.90
44513;DHT22;30219;50.588;9.504;2022-11-13T04:59:08;1.00;99.90
44513;DHT22;30219;50.588;9.504;2022-11-13T05:01:34;1.00;99.90
44513;DHT22;30219;50.588;9.504;2022-11-13T05:04:01;1.00;99.90
44513;DHT22;30219;50.588;9.504;2022-11-13T05:06:27;0.90;99.90
44513;DHT22;30219;50.588;9.504;2022-11-13T05:08:52;1.00;99.90
44513;DHT22;30219;50.588;9.504;2022-11-13T05:11:18;1.00;99.90
44513;DHT22;30219;50.588;9.504;2022-11-13T05:13:43;1.10;99.90
44513;DHT22;30219;50.588;9.504;2022-11-13T05:16:11;1.10;99.90
44513;DHT22;30219;50.588;9.504;2022-11-13T05:18:38;1.20;99.90
44513;DHT22;30219;50.588;9.504;2022-11-13T05:21:05;1.20;99.90
44513;DHT22;30219;50.588;9.504;2022-11-13T05:23:31;1.10;99.90
44513;DHT22;30219;50.588;9.504;2022-11-13T05:26:05;1.10;99.90
44513;DHT22;30219;50.588;9.504;2022-11-13T05:28:31;1.10;99.90
44513;DHT22;30219;50.588;9.504;2022-11-13T05:31:14;1.20;99.90
44513;DHT22;30219;50.588;9.504;2022-11-13T05:33:40;1.30;99.90
44513;DHT22;30219;50.588;9.504;2022-11-13T05:36:13;1.30;99.90
44513;DHT22;30219;50.588;9.504;2022-11-13T05:38:40;1.30;99.90
44513;DHT22;30219;50.588;9.504;2022-11-13T05:41:06;1.40;99.90
44513;DHT22;30219;50.588;9.504;2022-11-13T05:43:33;1.30;99.90
44513;DHT22;30219;50.588;9.504;2022-11-13T05:46:01;1.30;99.90
44513;DHT22;30219;50.588;9.504;2022-11-13T05:48:26;1.20;99.90
44513;DHT22;30219;50.588;9.504;2022-11-13T05:50:52;1.20;99.90
44513;DHT22;30219;50.588;9.504;2022-11-13T05:53:18;1.20;99.90
44513;DHT22;30219;50.588;9.504;2022-11-13T05:55:43;1.30;99.90
44513;DHT22;30219;50.588;9.504;2022-11-13T05:58:09;1.20;99.90
44513;DHT22;30219;50.588;9.504;2022-11-13T06:00:36;1.20;99.90
44513;DHT22;30219;50.588;9.504;2022-11-13T06:03:02;1.20;99.90
44513;DHT22;30219;50.588;9.504;2022-11-13T06:05:27;1.30;99.90
44513;DHT22;30219;50.588;9.504;2022-11-13T06:07:53;1.30;99.90
44513;DHT22;30219;50.588;9.504;2022-11-13T06:10:18;1.40;99.90
44513;DHT22;30219;50.588;9.504;2022-11-13T06:12:44;1.30;99.90
44513;DHT22;30219;50.588;9.504;2022-11-13T06:15:09;1.30;99.90
44513;DHT22;30219;50.588;9.504;2022-11-13T06:17:35;1.30;99.90
44513;DHT22;30219;50.588;9.504;2022-11-13T06:20:00;1.30;99.90
44513;DHT22;30219;50.588;9.504;2022-11-13T06:22:26;1.30;99.90
44513;DHT22;30219;50.588;9.504;2022-11-13T06:24:52;1.30;99.90
44513;DHT22;30219;50.588;9.504;2022-11-13T06:27:17;1.30;99.90
44513;DHT22;30219;50.588;9.504;2022-11-13T06:29:43;1.40;99.90
44513;DHT22;30219;50.588;9.504;2022-11-13T06:32:08;1.40;99.90
44513;DHT22;30219;50.588;9.504;2022-11-13T06:34:34;1.40;99.90
44513;DHT22;30219;50.588;9.504;2022-11-13T06:36:59;1.40;99.90
44513;DHT22;30219;50.588;9.504;2022-11-13T06:39:25;1.30;99.90
44513;DHT22;30219;50.588;9.504;2022-11-13T06:41:51;1.20;99.90
44513;DHT22;30219;50.588;9.504;2022-11-13T06:44:17;1.20;99.90
44513;DHT22;30219;50.588;9.504;2022-11-13T06:46:42;1.20;99.90
44513;DHT22;30219;50.588;9.504;2022-11-13T06:49:08;1.20;99.90
44513;DHT22;30219;50.588;9.504;2022-11-13T06:51:33;1.20;99.90
44513;DHT22;30219;50.588;9.504;2022-11-13T06:53:59;1.10;99.90
44513;DHT22;30219;50.588;9.504;2022-11-13T06:56:25;1.20;99.90
44513;DHT22;30219;50.588;9.504;2022-11-13T06:58:52;1.30;99.90
44513;DHT22;30219;50.588;9.504;2022-11-13T07:01:20;1.20;99.90
44513;DHT22;30219;50.588;9.504;2022-11-13T07:03:45;1.30;99.90
44513;DHT22;30219;50.588;9.504;2022-11-13T07:06:15;1.30;99.90
44513;DHT22;30219;50.588;9.504;2022-11-13T07:08:41;1.30;99.90
44513;DHT22;30219;50.588;9.504;2022-11-13T07:11:10;1.30;99.90
44513;DHT22;30219;50.588;9.504;2022-11-13T07:13:36;1.30;99.90
44513;DHT22;30219;50.588;9.504;2022-11-13T07:16:04;1.40;99.90
44513;DHT22;30219;50.588;9.504;2022-11-13T07:18:31;1.30;99.90
44513;DHT22;30219;50.588;9.504;2022-11-13T07:20:57;1.20;99.90
44513;DHT22;30219;50.588;9.504;2022-11-13T07:23:23;1.20;99.90
44513;DHT22;30219;50.588;9.504;2022-11-13T07:25:51;1.20;99.90
44513;DHT22;30219;50.588;9.504;2022-11-13T07:28:17;1.30;99.90
44513;DHT22;30219;50.588;9.504;2022-11-13T07:30:43;1.30;99.90
44513;DHT22;30219;50.588;9.504;2022-11-13T07:33:08;1.40;99.90
44513;DHT22;30219;50.588;9.504;2022-11-13T07:35:34;1.40;99.90
44513;DHT22;30219;50.588;9.504;2022-11-13T07:37:59;1.40;99.90
44513;DHT22;30219;50.588;9.504;2022-11-13T07:40:25;1.40;99.90
44513;DHT22;30219;50.588;9.504;2022-11-13T07:43:01;1.30;99.90
44513;DHT22;30219;50.588;9.504;2022-11-13T07:45:27;1.40;99.90
44513;DHT22;30219;50.588;9.504;2022-11-13T07:48:01;1.40;99.90
44513;DHT22;30219;50.588;9.504;2022-11-13T07:50:28;1.40;99.90
44513;DHT22;30219;50.588;9.504;2022-11-13T07:53:05;1.50;99.90
44513;DHT22;30219;50.588;9.504;2022-11-13T07:55:33;1.40;99.90
44513;DHT22;30219;50.588;9.504;2022-11-13T07:57:59;1.50;99.90
44513;DHT22;30219;50.588;9.504;2022-11-13T08:00:26;1.40;99.90
44513;DHT22;30219;50.588;9.504;2022-11-13T08:02:52;1.40;99.90
44513;DHT22;30219;50.588;9.504;2022-11-13T08:05:18;1.50;99.90
44513;DHT22;30219;50.588;9.504;2022-11-13T08:07:47;1.50;99.90
44513;DHT22;30219;50.588;9.504;2022-11-13T08:10:13;1.50;99.90
44513;DHT22;30219;50.588;9.504;2022-11-13T08:12:39;1.60;99.90
44513;DHT22;30219;50.588;9.504;2022-11-13T08:15:05;1.70;99.90
44513;DHT22;30219;50.588;9.504;2022-11-13T08:17:30;1.80;99.90
44513;DHT22;30219;50.588;9.504;2022-11-13T08:19:56;1.80;99.90
44513;DHT22;30219;50.588;9.504;2022-11-13T08:22:21;1.90;99.90
44513;DHT22;30219;50.588;9.504;2022-11-13T08:24:47;2.00;99.90
44513;DHT22;30219;50.588;9.504;2022-11-13T08:27:12;2.10;99.90
44513;DHT22;30219;50.588;9.504;2022-11-13T08:29:38;2.20;99.90
44513;DHT22;30219;50.588;9.504;2022-11-13T08:32:04;2.00;99.90
44513;DHT22;30219;50.588;9.504;2022-11-13T08:34:30;2.10;99.90
44513;DHT22;30219;50.588;9.504;2022-11-13T08:36:56;2.30;99.90
44513;DHT22;30219;50.588;9.504;2022-11-13T08:39:21;2.50;99.90
44513;DHT22;30219;50.588;9.504;2022-11-13T08:41:47;2.80;99.90
44513;DHT22;30219;50.588;9.504;2022-11-13T08:44:13;2.90;99.90
44513;DHT22;30219;50.588;9.504;2022-11-13T08:46:39;3.00;99.90
44513;DHT22;30219;50.588;9.504;2022-11-13T08:49:05;3.00;99.90
44513;DHT22;30219;50.588;9.504;2022-11-13T08:51:31;3.20;99.90
44513;DHT22;30219;50.588;9.504;2022-11-13T08:53:56;3.40;99.90
44513;DHT22;30219;50.588;9.504;2022-11-13T08:56:22;3.50;99.90
44513;DHT22;30219;50.588;9.504;2022-11-13T08:58:48;3.70;99.90
44513;DHT22;30219;50.588;9.504;2022-11-13T09:01:13;3.70;99.90
44513;DHT22;30219;50.588;9.504;2022-11-13T09:03:39;3.70;99.90
44513;DHT22;30219;50.588;9.504;2022-11-13T09:06:06;3.80;99.90
44513;DHT22;30219;50.588;9.504;2022-11-13T09:08:32;4.00;99.90
44513;DHT22;30219;50.588;9.504;2022-11-13T09:11:02;4.10;99.90
44513;DHT22;30219;50.588;9.504;2022-11-13T09:13:28;4.30;99.90
44513;DHT22;30219;50.588;9.504;2022-11-13T09:16:00;4.60;99.90
44513;DHT22;30219;50.588;9.504;2022-11-13T09:18:25;4.80;99.90
44513;DHT22;30219;50.588;9.504;2022-11-13T09:20:51;5.00;99.90
44513;DHT22;30219;50.588;9.504;2022-11-13T09:23:17;5.20;99.90
44513;DHT22;30219;50.588;9.504;2022-11-13T09:25:42;5.40;99.90
44513;DHT22;30219;50.588;9.504;2022-11-13T09:28:09;5.50;99.90
44513;DHT22;30219;50.588;9.504;2022-11-13T09:30:37;5.60;99.90
44513;DHT22;30219;50.588;9.504;2022-11-13T09:33:03;5.60;99.90
44513;DHT22;30219;50.588;9.504;2022-11-13T09:35:30;5.70;99.90
44513;DHT22;30219;50.588;9.504;2022-11-13T09:38:19;5.70;99.90
44513;DHT22;30219;50.588;9.504;2022-11-13T09:41:08;5.80;99.90
44513;DHT22;30219;50.588;9.504;2022-11-13T09:43:47;5.70;99.90
44513;DHT22;30219;50.588;9.504;2022-11-13T09:51:54;5.70;99.90
44513;DHT22;30219;50.588;9.504;2022-11-13T09:54:21;5.80;99.90
44513;DHT22;30219;50.588;9.504;2022-11-13T09:59:58;6.10;99.90
44513;DHT22;30219;50.588;9.504;2022-11-13T10:02:42;5.90;99.90
44513;DHT22;30219;50.588;9.504;2022-11-13T10:07:51;6.00;99.90
44513;DHT22;30219;50.588;9.504;2022-11-13T10:13:16;7.40;99.90
44513;DHT22;30219;50.588;9.504;2022-11-13T10:15:45;8.20;99.90
44513;DHT22;30219;50.588;9.504;2022-11-13T10:18:14;8.70;99.90
44513;DHT22;30219;50.588;9.504;2022-11-13T10:20:53;9.20;99.90
44513;DHT22;30219;50.588;9.504;2022-11-13T10:23:34;9.60;99.90
44513;DHT22;30219;50.588;9.504;2022-11-13T10:26:14;10.10;99.90
44513;DHT22;30219;50.588;9.504;2022-11-13T10:28:43;10.60;99.90
44513;DHT22;30219;50.588;9.504;2022-11-13T10:31:12;10.80;99.90
44513;DHT22;30219;50.588;9.504;2022-11-13T10:33:38;11.00;99.90
44513;DHT22;30219;50.588;9.504;2022-11-13T10:38:46;11.70;99.90
44513;DHT22;30219;50.588;9.504;2022-11-13T10:41:16;11.70;99.90
44513;DHT22;30219;50.588;9.504;2022-11-13T10:46:28;12.40;99.90
44513;DHT22;30219;50.588;9.504;2022-11-13T10:48:58;12.70;99.90
44513;DHT22;30219;50.588;9.504;2022-11-13T10:51:34;12.70;99.90
44513;DHT22;30219;50.588;9.504;2022-11-13T10:54:26;12.80;99.90
44513;DHT22;30219;50.588;9.504;2022-11-13T10:57:04;12.90;99.90
44513;DHT22;30219;50.588;9.504;2022-11-13T10:59:50;13.20;99.90
44513;DHT22;30219;50.588;9.504;2022-11-13T11:02:17;13.40;99.90
44513;DHT22;30219;50.588;9.504;2022-11-13T11:04:43;13.50;99.90
44513;DHT22;30219;50.588;9.504;2022-11-13T11:07:21;13.50;99.90
44513;DHT22;30219;50.588;9.504;2022-11-13T11:09:48;13.60;99.90
44513;DHT22;30219;50.588;9.504;2022-11-13T11:12:21;13.60;99.90
44513;DHT22;30219;50.588;9.504;2022-11-13T11:14:53;13.70;99.90
44513;DHT22;30219;50.588;9.504;2022-11-13T11:17:36;13.80;99.90
44513;DHT22;30219;50.588;9.504;2022-11-13T11:20:28;14.00;99.90
44513;DHT22;30219;50.588;9.504;2022-11-13T11:23:01;14.20;99.90
44513;DHT22;30219;50.588;9.504;2022-11-13T11:26:16;14.30;99.90
44513;DHT22;30219;50.588;9.504;2022-11-13T11:34:03;14.60;99.90
44513;DHT22;30219;50.588;9.504;2022-11-13T11:36:44;14.60;99.90
44513;DHT22;30219;50.588;9.504;2022-11-13T11:41:56;14.60;99.90
44513;DHT22;30219;50.588;9.504;2022-11-13T11:44:42;14.40;99.90
44513;DHT22;30219;50.588;9.504;2022-11-13T11:47:14;14.70;99.90
44513;DHT22;30219;50.588;9.504;2022-11-13T11:49:42;14.90;99.90
44513;DHT22;30219;50.588;9.504;2022-11-13T11:55:24;14.90;99.90
44513;DHT22;30219;50.588;9.504;2022-11-13T12:00:29;14.90;99.90
44513;DHT22;30219;50.588;9.504;2022-11-13T12:08:58;14.80;99.90
44513;DHT22;30219;50.588;9.504;2022-11-13T12:12:02;15.00;99.90
44513;DHT22;30219;50.588;9.504;2022-11-13T12:17:25;15.50;99.90
44513;DHT22;30219;50.588;9.504;2022-11-13T12:20:15;15.60;99.90
44513;DHT22;30219;50.588;9.504;2022-11-13T12:25:52;15.90;99.90
44513;DHT22;30219;50.588;9.504;2022-11-13T12:28:27;16.00;99.90
44513;DHT22;30219;50.588;9.504;2022-11-13T12:31:17;16.00;99.90
44513;DHT22;30219;50.588;9.504;2022-11-13T12:34:04;16.00;99.90
44513;DHT22;30219;50.588;9.504;2022-11-13T12:36:31;16.10;99.90
44513;DHT22;30219;50.588;9.504;2022-11-13T12:41:50;16.00;99.90
44513;DHT22;30219;50.588;9.504;2022-11-13T12:46:49;16.10;99.90
44513;DHT22;30219;50.588;9.504;2022-11-13T12:54:40;15.60;99.70
44513;DHT22;30219;50.588;9.504;2022-11-13T12:57:14;15.20;99.90
44513;DHT22;30219;50.588;9.504;2022-11-13T12:59:44;15.00;99.90
44513;DHT22;30219;50.588;9.504;2022-11-13T13:07:36;15.30;99.90
44513;DHT22;30219;50.588;9.504;2022-11-13T13:16:02;14.40;99.90
44513;DHT22;30219;50.588;9.504;2022-11-13T13:18:36;14.60;99.90
44513;DHT22;30219;50.588;9.504;2022-11-13T13:21:11;14.60;99.90
44513;DHT22;30219;50.588;9.504;2022-11-13T13:23:43;14.70;99.90
44513;DHT22;30219;50.588;9.504;2022-11-13T13:28:39;14.10;99.90
44513;DHT22;30219;50.588;9.504;2022-11-13T13:36:23;13.20;99.90
44513;DHT22;30219;50.588;9.504;2022-11-13T13:39:00;13.10;99.90
44513;DHT22;30219;50.588;9.504;2022-11-13T13:44:47;13.00;99.90
44513;DHT22;30219;50.588;9.504;2022-11-13T13:47:28;13.00;99.90
44513;DHT22;30219;50.588;9.504;2022-11-13T13:49:56;12.60;99.90
44513;DHT22;30219;50.588;9.504;2022-11-13T13:52:32;12.50;99.90
44513;DHT22;30219;50.588;9.504;2022-11-13T13:55:02;12.40;99.90
44513;DHT22;30219;50.588;9.504;2022-11-13T13:57:28;12.50;99.90
44513;DHT22;30219;50.588;9.504;2022-11-13T13:59:55;12.40;99.90
44513;DHT22;30219;50.588;9.504;2022-11-13T14:02:22;12.40;99.90
44513;DHT22;30219;50.588;9.504;2022-11-13T14:04:51;12.20;99.90
44513;DHT22;30219;50.588;9.504;2022-11-13T14:09:48;12.00;99.90
44513;DHT22;30219;50.588;9.504;2022-11-13T14:12:19;11.90;99.90
44513;DHT22;30219;50.588;9.504;2022-11-13T14:14:46;11.80;99.90
44513;DHT22;30219;50.588;9.504;2022-11-13T14:17:21;11.90;99.90
44513;DHT22;30219;50.588;9.504;2022-11-13T14:19:55;11.90;99.90
44513;DHT22;30219;50.588;9.504;2022-11-13T14:22:24;11.70;99.90
44513;DHT22;30219;50.588;9.504;2022-11-13T14:24:54;11.80;99.90
44513;DHT22;30219;50.588;9.504;2022-11-13T14:27:23;11.70;99.90
44513;DHT22;30219;50.588;9.504;2022-11-13T14:29:52;11.70;99.90
44513;DHT22;30219;50.588;9.504;2022-11-13T14:32:23;11.60;99.90
44513;DHT22;30219;50.588;9.504;2022-11-13T14:34:51;11.50;99.90
44513;DHT22;30219;50.588;9.504;2022-11-13T14:37:26;11.30;99.90
44513;DHT22;30219;50.588;9.504;2022-11-13T14:39:55;11.20;99.90
44513;DHT22;30219;50.588;9.504;2022-11-13T14:42:29;10.90;99.90
44513;DHT22;30219;50.588;9.504;2022-11-13T14:45:16;10.80;99.90
44513;DHT22;30219;50.588;9.504;2022-11-13T14:47:42;10.70;99.90
44513;DHT22;30219;50.588;9.504;2022-11-13T14:50:23;10.70;99.90
44513;DHT22;30219;50.588;9.504;2022-11-13T14:53:08;10.60;99.90
44513;DHT22;30219;50.588;9.504;2022-11-13T14:55:50;10.60;99.90
44513;DHT22;30219;50.588;9.504;2022-11-13T14:58:26;10.50;99.90
44513;DHT22;30219;50.588;9.504;2022-11-13T15:00:52;10.50;99.90
44513;DHT22;30219;50.588;9.504;2022-11-13T15:03:18;10.60;99.90
44513;DHT22;30219;50.588;9.504;2022-11-13T15:05:43;10.30;99.90
44513;DHT22;30219;50.588;9.504;2022-11-13T15:08:12;10.20;99.90
44513;DHT22;30219;50.588;9.504;2022-11-13T15:10:39;10.30;99.90
44513;DHT22;30219;50.588;9.504;2022-11-13T15:13:12;10.40;99.90
44513;DHT22;30219;50.588;9.504;2022-11-13T15:15:38;10.50;99.90
44513;DHT22;30219;50.588;9.504;2022-11-13T15:18:05;10.50;99.90
44513;DHT22;30219;50.588;9.504;2022-11-13T15:20:31;10.50;99.90
44513;DHT22;30219;50.588;9.504;2022-11-13T15:22:58;10.60;99.90
44513;DHT22;30219;50.588;9.504;2022-11-13T15:25:24;10.60;99.90
44513;DHT22;30219;50.588;9.504;2022-11-13T15:27:50;10.60;99.90
44513;DHT22;30219;50.588;9.504;2022-11-13T15:30:17;10.40;99.90
44513;DHT22;30219;50.588;9.504;2022-11-13T15:32:43;10.20;99.90
44513;DHT22;30219;50.588;9.504;2022-11-13T15:35:18;10.00;99.90
44513;DHT22;30219;50.588;9.504;2022-11-13T15:37:44;10.00;99.90
44513;DHT22;30219;50.588;9.504;2022-11-13T15:40:12;10.00;99.90
44513;DHT22;30219;50.588;9.504;2022-11-13T15:42:38;9.70;99.90
44513;DHT22;30219;50.588;9.504;2022-11-13T15:45:04;9.50;99.90
44513;DHT22;30219;50.588;9.504;2022-11-13T15:47:35;9.60;99.90
44513;DHT22;30219;50.588;9.504;2022-11-13T15:50:02;9.60;99.90
44513;DHT22;30219;50.588;9.504;2022-11-13T15:52:31;9.70;99.90
44513;DHT22;30219;50.588;9.504;2022-11-13T15:54:59;9.60;99.90
44513;DHT22;30219;50.588;9.504;2022-11-13T15:57:27;9.60;99.90
44513;DHT22;30219;50.588;9.504;2022-11-13T15:59:53;9.50;99.90
44513;DHT22;30219;50.588;9.504;2022-11-13T16:02:19;9.40;99.90
44513;DHT22;30219;50.588;9.504;2022-11-13T16:04:45;9.20;99.90
44513;DHT22;30219;50.588;9.504;2022-11-13T16:07:27;9.00;99.90
44513;DHT22;30219;50.588;9.504;2022-11-13T16:09:53;9.00;99.90
44513;DHT22;30219;50.588;9.504;2022-11-13T16:12:19;9.00;99.90
44513;DHT22;30219;50.588;9.504;2022-11-13T16:14:44;8.90;99.90
44513;DHT22;30219;50.588;9.504;2022-11-13T16:17:14;8.90;99.90
44513;DHT22;30219;50.588;9.504;2022-11-13T16:19:41;8.80;99.90
44513;DHT22;30219;50.588;9.504;2022-11-13T16:22:22;8.70;99.90
44513;DHT22;30219;50.588;9.504;2022-11-13T16:24:48;8.60;99.90
44513;DHT22;30219;50.588;9.504;2022-11-13T16:27:26;8.30;99.90
44513;DHT22;30219;50.588;9.504;2022-11-13T16:29:53;8.20;99.90
44513;DHT22;30219;50.588;9.504;2022-11-13T16:32:19;8.20;99.90
44513;DHT22;30219;50.588;9.504;2022-11-13T16:34:46;8.10;99.90
44513;DHT22;30219;50.588;9.504;2022-11-13T16:37:17;8.00;99.90
44513;DHT22;30219;50.588;9.504;2022-11-13T16:39:44;7.80;99.90
44513;DHT22;30219;50.588;9.504;2022-11-13T16:42:10;7.60;99.90
44513;DHT22;30219;50.588;9.504;2022-11-13T16:44:36;7.60;99.90
44513;DHT22;30219;50.588;9.504;2022-11-13T16:47:04;7.50;99.90
44513;DHT22;30219;50.588;9.504;2022-11-13T16:49:29;7.40;99.90
44513;DHT22;30219;50.588;9.504;2022-11-13T16:51:55;7.30;99.90
44513;DHT22;30219;50.588;9.504;2022-11-13T16:54:20;7.00;99.90
44513;DHT22;30219;50.588;9.504;2022-11-13T16:56:46;7.10;99.90
44513;DHT22;30219;50.588;9.504;2022-11-13T16:59:12;7.10;99.90
44513;DHT22;30219;50.588;9.504;2022-11-13T17:01:37;7.10;99.90
44513;DHT22;30219;50.588;9.504;2022-11-13T17:04:04;6.90;99.90
44513;DHT22;30219;50.588;9.504;2022-11-13T17:06:34;6.90;99.90
44513;DHT22;30219;50.588;9.504;2022-11-13T17:09:01;6.90;99.90
44513;DHT22;30219;50.588;9.504;2022-11-13T17:11:29;6.80;99.90
44513;DHT22;30219;50.588;9.504;2022-11-13T17:13:57;6.70;99.90